Time;durP1;ratioP1;P1;durP2;ratioP2;P2;SDS_P1;SDS_P2;PMS_P1;PMS_P2;Temp;Humidity;BMP_temperature;BMP_pressure;BME280_temperature;BME280_humidity;BME280_pressure;Samples;Min_cycle;Max_cycle;Signal;HPM_P1;HPM_P2
2024/04/13 00:02:19;;;;;;;13.27;4.10;;;10.30;99.90;;;;;;5422019;26;20392;-86
2024/04/13 00:05:08;;;;;;;10.20;3.80;;;10.40;99.90;;;;;;5442465;26;20006;-86
2024/04/13 00:07:55;;;;;;;9.98;4.32;;;10.40;99.90;;;;;;5447311;26;20014;-84
2024/04/13 00:10:43;;;;;;;10.40;4.03;;;10.50;99.90;;;;;;5442754;26;20052;-82
2024/04/13 00:13:31;;;;;;;10.00;4.15;;;10.40;99.90;;;;;;5477050;26;20019;-83
2024/04/13 00:16:20;;;;;;;6.40;4.07;;;10.40;99.90;;;;;;5443963;26;20007;-84
2024/04/13 00:19:11;;;;;;;11.90;4.63;;;10.30;99.90;;;;;;5444846;26;20465;-86
2024/04/13 00:22:00;;;;;;;9.88;3.90;;;10.00;99.90;;;;;;5443885;26;20108;-76
2024/04/13 00:24:47;;;;;;;8.38;4.47;;;9.70;99.90;;;;;;5441429;26;20015;-82
2024/04/13 00:27:35;;;;;;;8.00;4.32;;;9.60;99.90;;;;;;5443832;26;20013;-84
2024/04/13 00:30:23;;;;;;;10.05;4.47;;;9.40;99.90;;;;;;5441874;26;20021;-85
2024/04/13 00:33:11;;;;;;;10.77;4.00;;;9.20;99.90;;;;;;5441353;26;20017;-84
2024/04/13 00:36:00;;;;;;;12.70;4.78;;;9.10;99.90;;;;;;5441495;26;20015;-83
2024/04/13 00:38:48;;;;;;;9.93;4.60;;;9.00;99.90;;;;;;5473788;26;20035;-83
2024/04/13 00:41:36;;;;;;;14.15;4.90;;;8.90;99.90;;;;;;5420659;26;20013;-84
2024/04/13 00:44:23;;;;;;;12.20;4.75;;;8.90;99.90;;;;;;5447480;26;20003;-84
2024/04/13 00:47:13;;;;;;;7.03;4.40;;;8.80;99.90;;;;;;5415267;26;20433;-82
2024/04/13 00:50:13;;;;;;;8.18;4.15;;;8.70;99.90;;;;;;5441941;26;20014;-83
2024/04/13 00:53:01;;;;;;;11.50;4.28;;;8.60;99.90;;;;;;5442292;26;20006;-82
2024/04/13 00:55:49;;;;;;;12.32;4.38;;;8.60;99.90;;;;;;5440104;26;20037;-80
2024/04/13 00:58:38;;;;;;;10.02;3.97;;;8.70;99.90;;;;;;5442195;26;20007;-83
2024/04/13 01:01:27;;;;;;;9.65;4.28;;;8.90;99.90;;;;;;5413839;26;20021;-84
2024/04/13 01:04:16;;;;;;;11.15;4.90;;;9.10;99.90;;;;;;5443584;26;20016;-85
2024/04/13 01:07:05;;;;;;;6.47;3.53;;;9.20;99.90;;;;;;5444688;26;20003;-82
2024/04/13 01:09:54;;;;;;;11.90;4.10;;;9.30;99.90;;;;;;5444887;26;20007;-83
2024/04/13 01:12:43;;;;;;;7.72;4.10;;;9.30;99.90;;;;;;5445685;26;20007;-84
2024/04/13 01:15:30;;;;;;;8.63;4.30;;;9.30;99.90;;;;;;5416714;26;20028;-83
2024/04/13 01:18:21;;;;;;;9.48;4.32;;;9.20;99.90;;;;;;5445657;26;20614;-83
2024/04/13 01:21:12;;;;;;;10.13;3.88;;;9.20;99.90;;;;;;5442508;26;20027;-85
2024/04/13 01:24:06;;;;;;;10.00;4.30;;;9.10;99.90;;;;;;5440722;26;20007;-84
2024/04/13 01:26:54;;;;;;;7.15;4.20;;;9.00;99.90;;;;;;5444491;26;20010;-84
2024/04/13 01:29:51;;;;;;;9.15;4.95;;;9.00;99.90;;;;;;5444642;26;20019;-82
2024/04/13 01:32:39;;;;;;;8.30;3.90;;;8.90;99.90;;;;;;5448693;26;20082;-79
2024/04/13 01:35:30;;;;;;;9.25;4.32;;;8.90;99.90;;;;;;5459365;26;20102;-84
2024/04/13 01:38:20;;;;;;;8.32;4.18;;;8.90;99.90;;;;;;5444898;26;20007;-87
2024/04/13 01:41:09;;;;;;;9.27;4.60;;;8.80;99.90;;;;;;5442552;26;20019;-84
2024/04/13 01:43:57;;;;;;;9.40;4.47;;;8.80;99.90;;;;;;5440677;26;20018;-85
2024/04/13 01:46:45;;;;;;;14.00;4.65;;;8.70;99.90;;;;;;5432962;21;20021;-83
2024/04/13 01:49:33;;;;;;;10.48;4.22;;;8.70;99.90;;;;;;5475668;26;20002;-82
2024/04/13 01:52:21;;;;;;;12.23;4.15;;;8.60;1.00;;;;;;5487631;26;20092;-85
2024/04/13 01:55:08;;;;;;;12.15;4.85;;;8.60;1.00;;;;;;5480791;26;20055;-83
2024/04/13 01:57:56;;;;;;;11.68;5.10;;;8.50;1.00;;;;;;5477956;26;20010;-81
2024/04/13 02:00:45;;;;;;;17.27;5.03;;;8.40;1.00;;;;;;5485898;26;20061;-86
2024/04/13 02:03:32;;;;;;;14.15;4.88;;;8.30;1.00;;;;;;5486116;26;20002;-83
2024/04/13 02:06:20;;;;;;;8.30;4.63;;;8.40;1.00;;;;;;5479517;26;20061;-82
2024/04/13 02:09:13;;;;;;;11.10;4.50;;;8.60;1.00;;;;;;5475529;26;20006;-82
2024/04/13 02:12:04;;;;;;;8.13;4.80;;;8.70;1.00;;;;;;5476969;26;20416;-83
2024/04/13 02:14:52;;;;;;;13.32;5.07;;;8.80;1.00;;;;;;5477208;26;20006;-83
2024/04/13 02:17:41;;;;;;;8.93;4.38;;;8.80;1.00;;;;;;5474894;26;20007;-84
2024/04/13 02:20:31;;;;;;;15.43;4.93;;;8.70;1.00;;;;;;5515941;26;20008;-84
2024/04/13 02:23:22;;;;;;;7.97;4.32;;;8.70;1.00;;;;;;5490706;26;20375;-82
2024/04/13 02:26:10;;;;;;;7.35;4.30;;;8.60;1.00;;;;;;5515881;26;20633;-81
2024/04/13 02:28:58;;;;;;;7.57;4.05;;;8.60;1.00;;;;;;5487193;26;20336;-80
2024/04/13 02:31:46;;;;;;;4.75;3.40;;;8.60;1.00;;;;;;5512739;26;20384;-84
2024/04/13 02:34:35;;;;;;;13.25;5.57;;;8.60;1.00;;;;;;5487440;26;20037;-81
2024/04/13 02:37:23;;;;;;;11.63;4.22;;;8.60;1.00;;;;;;5513152;26;20006;-83
2024/04/13 02:40:11;;;;;;;9.43;3.75;;;8.70;1.00;;;;;;5512750;26;20002;-82
2024/04/13 02:43:03;;;;;;;10.13;4.63;;;8.70;1.00;;;;;;5513888;26;20013;-83
2024/04/13 02:45:52;;;;;;;10.05;4.72;;;8.80;1.00;;;;;;5513623;26;19997;-84
2024/04/13 02:48:43;;;;;;;11.50;4.82;;;8.70;1.00;;;;;;5488244;26;20570;-84
2024/04/13 02:51:31;;;;;;;9.73;4.55;;;8.60;1.00;;;;;;5514804;26;20018;-85
2024/04/13 02:54:18;;;;;;;13.40;4.80;;;8.60;1.00;;;;;;5514090;26;20069;-83
2024/04/13 02:57:07;;;;;;;8.25;4.65;;;8.60;1.00;;;;;;5513926;26;20029;-85
2024/04/13 02:59:54;;;;;;;11.07;4.28;;;8.50;1.00;;;;;;5485769;26;20053;-82
2024/04/13 03:02:42;;;;;;;9.68;4.70;;;8.40;1.00;;;;;;5512118;26;20104;-84
2024/04/13 03:05:29;;;;;;;9.95;5.00;;;8.40;1.00;;;;;;5484830;26;20096;-83
2024/04/13 03:08:17;;;;;;;14.07;5.32;;;8.40;1.00;;;;;;5512920;26;20020;-85
2024/04/13 03:11:05;;;;;;;12.13;5.47;;;8.40;1.00;;;;;;5513905;26;20076;-83
2024/04/13 03:13:54;;;;;;;9.55;5.10;;;8.40;1.00;;;;;;5484648;26;20013;-83
2024/04/13 03:16:41;;;;;;;13.02;5.47;;;8.40;1.00;;;;;;5512533;26;20016;-83
2024/04/13 03:19:29;;;;;;;11.35;5.10;;;8.40;1.00;;;;;;5514508;26;20002;-83
2024/04/13 03:22:18;;;;;;;8.55;4.75;;;8.30;1.00;;;;;;5514408;26;20717;-83
2024/04/13 03:25:05;;;;;;;11.00;5.20;;;8.10;1.00;;;;;;5514397;26;20026;-83
2024/04/13 03:27:57;;;;;;;12.00;5.70;;;8.00;1.00;;;;;;5517961;25;20012;-82
2024/04/13 03:30:44;;;;;;;10.88;5.45;;;7.90;4.70;;;;;;5512399;26;20024;-82
2024/04/13 03:33:32;;;;;;;14.40;6.05;;;7.80;35.60;;;;;;5511265;26;20107;-84
2024/04/13 03:36:21;;;;;;;7.28;4.70;;;7.80;70.20;;;;;;5511641;26;20504;-82
2024/04/13 03:39:08;;;;;;;9.63;5.43;;;7.70;98.80;;;;;;5513584;26;20037;-82
2024/04/13 03:41:55;;;;;;;10.52;5.40;;;7.70;99.90;;;;;;5515304;26;20002;-82
2024/04/13 03:44:43;;;;;;;7.05;5.05;;;7.70;99.90;;;;;;5510826;26;20013;-83
2024/04/13 03:47:31;;;;;;;7.53;4.88;;;7.70;99.90;;;;;;5491457;26;20033;-86
2024/04/13 03:50:19;;;;;;;11.75;5.20;;;7.60;99.90;;;;;;5513809;26;20081;-86
2024/04/13 03:53:06;;;;;;;8.40;4.43;;;7.60;99.90;;;;;;5512069;26;20002;-85
2024/04/13 03:55:53;;;;;;;8.75;5.03;;;7.50;99.90;;;;;;5512333;26;20096;-83
2024/04/13 03:58:42;;;;;;;12.35;4.93;;;7.50;99.90;;;;;;5510815;26;20054;-84
2024/04/13 04:01:31;;;;;;;14.75;5.65;;;7.50;99.90;;;;;;5486111;26;20014;-80
2024/04/13 04:04:18;;;;;;;10.77;5.40;;;7.50;99.90;;;;;;5514773;26;20002;-81
2024/04/13 04:07:05;;;;;;;11.07;5.00;;;7.50;99.90;;;;;;5510082;26;20058;-82
2024/04/13 04:09:53;;;;;;;10.32;5.70;;;7.50;99.90;;;;;;5487147;26;20010;-77
2024/04/13 04:12:41;;;;;;;16.05;6.13;;;7.40;99.90;;;;;;5514188;26;20350;-80
2024/04/13 04:15:29;;;;;;;9.73;5.72;;;7.40;99.90;;;;;;5490724;26;20002;-86
2024/04/13 04:18:16;;;;;;;10.73;5.25;;;7.40;99.90;;;;;;5517933;26;20077;-83
2024/04/13 04:21:04;;;;;;;11.45;5.85;;;7.50;99.90;;;;;;5517798;26;20015;-84
2024/04/13 04:23:52;;;;;;;10.85;6.40;;;7.40;99.90;;;;;;5517561;26;20035;-83
2024/04/13 04:26:40;;;;;;;17.77;6.88;;;7.40;99.90;;;;;;5488006;26;20054;-81
2024/04/13 04:29:27;;;;;;;8.60;5.28;;;7.40;99.90;;;;;;5516823;26;20006;-85
2024/04/13 04:32:16;;;;;;;17.40;5.25;;;7.40;99.90;;;;;;5516647;26;20498;-85
2024/04/13 04:35:06;;;;;;;8.80;5.15;;;7.40;99.90;;;;;;5516257;26;20005;-81
2024/04/13 04:37:54;;;;;;;11.82;5.90;;;7.30;99.90;;;;;;5516016;26;20042;-84
2024/04/13 04:40:41;;;;;;;15.95;7.15;;;7.30;99.90;;;;;;5464687;26;20463;-85
2024/04/13 04:43:30;;;;;;;19.60;6.70;;;7.20;99.90;;;;;;5515751;26;20041;-83
2024/04/13 04:46:17;;;;;;;14.77;5.47;;;7.20;1.00;;;;;;5492713;26;20013;-82
2024/04/13 04:49:05;;;;;;;9.10;6.50;;;7.20;1.00;;;;;;5535369;25;20001;-82
2024/04/13 04:51:53;;;;;;;10.63;6.55;;;7.20;1.00;;;;;;5497618;25;20001;-83
2024/04/13 04:54:41;;;;;;;12.80;6.40;;;7.20;1.00;;;;;;5518384;26;20338;-83
2024/04/13 04:57:28;;;;;;;17.10;6.13;;;7.30;1.00;;;;;;5490842;26;20386;-82
2024/04/13 05:00:16;;;;;;;12.38;6.32;;;7.20;1.00;;;;;;5517373;26;20002;-82
2024/04/13 05:03:04;;;;;;;10.73;5.68;;;7.30;1.50;;;;;;5516772;26;20006;-82
2024/04/13 05:05:52;;;;;;;15.30;6.03;;;7.30;38.80;;;;;;5516986;26;20013;-83
2024/04/13 05:08:39;;;;;;;11.77;5.38;;;7.40;69.90;;;;;;5489389;26;20024;-81
2024/04/13 05:11:27;;;;;;;12.80;5.95;;;7.40;99.90;;;;;;5465717;26;20005;-82
2024/04/13 05:14:18;;;;;;;11.68;6.18;;;7.60;99.90;;;;;;5490023;26;20016;-83
2024/04/13 05:17:05;;;;;;;9.65;5.85;;;7.70;98.70;;;;;;5493482;26;19993;-84
2024/04/13 05:19:53;;;;;;;7.18;5.50;;;7.80;57.70;;;;;;5528253;26;20097;-83
2024/04/13 05:22:42;;;;;;;11.43;5.35;;;7.80;16.50;;;;;;5501136;26;20005;-85
2024/04/13 05:25:29;;;;;;;7.40;5.43;;;7.90;1.00;;;;;;5528913;26;20001;-81
2024/04/13 05:28:20;;;;;;;9.32;5.57;;;7.90;1.00;;;;;;5528564;26;20006;-84
2024/04/13 05:31:09;;;;;;;13.23;6.85;;;8.00;1.00;;;;;;5532179;26;19997;-83
2024/04/13 05:33:58;;;;;;;14.75;6.40;;;8.10;1.00;;;;;;5510297;26;20009;-77
2024/04/13 05:36:45;;;;;;;14.27;5.95;;;8.10;1.00;;;;;;5510285;26;19994;-82
2024/04/13 05:39:33;;;;;;;8.55;5.72;;;8.00;1.00;;;;;;5532763;26;20006;-81
2024/04/13 05:42:20;;;;;;;7.47;5.40;;;8.00;99.90;;;;;;5534939;26;19990;-76
2024/04/13 05:45:10;;;;;;;11.13;5.20;;;8.20;99.90;;;;;;5505685;26;20009;-83
2024/04/13 05:47:57;;;;;;;11.15;5.28;;;8.30;99.90;;;;;;5531816;26;20002;-82
2024/04/13 05:51:02;;;;;;;8.35;4.72;;;8.60;99.90;;;;;;5527185;26;20001;-81
2024/04/13 05:53:49;;;;;;;7.85;5.40;;;8.90;99.90;;;;;;5500734;26;20006;-84
2024/04/13 05:56:39;;;;;;;10.27;4.68;;;9.20;99.90;;;;;;5527602;26;20100;-81
2024/04/13 05:59:26;;;;;;;12.05;4.43;;;9.50;99.90;;;;;;5530157;26;20020;-84
2024/04/13 06:02:14;;;;;;;11.35;3.97;;;9.80;99.90;;;;;;5500860;26;20402;-86
2024/04/13 06:05:01;;;;;;;12.32;3.90;;;10.20;53.10;;;;;;5528019;26;20468;-84
2024/04/13 06:07:52;;;;;;;8.25;3.88;;;10.40;1.00;;;;;;5527951;26;19998;-85
2024/04/13 06:10:40;;;;;;;10.40;4.10;;;10.50;1.00;;;;;;5527631;26;20054;-84
2024/04/13 06:13:27;;;;;;;6.63;3.90;;;10.60;1.00;;;;;;5500045;26;20005;-82
2024/04/13 06:16:17;;;;;;;8.15;4.05;;;10.70;99.90;;;;;;5527375;26;20020;-82
2024/04/13 06:19:05;;;;;;;13.60;4.22;;;10.80;99.90;;;;;;5524714;26;20394;-81
2024/04/13 06:21:53;;;;;;;12.23;4.70;;;10.90;99.90;;;;;;5527288;26;20008;-80
2024/04/13 06:24:40;;;;;;;11.25;3.95;;;11.10;99.90;;;;;;5531189;26;20037;-80
2024/04/13 06:27:28;;;;;;;11.25;3.63;;;11.50;99.90;;;;;;5500935;26;20008;-84
2024/04/13 06:30:16;;;;;;;4.40;3.25;;;11.90;99.90;;;;;;5528076;26;20017;-82
2024/04/13 06:33:03;;;;;;;8.32;3.72;;;12.50;99.90;;;;;;5504976;26;20001;-83
2024/04/13 06:35:51;;;;;;;8.50;3.83;;;13.10;99.90;;;;;;5521486;26;20049;-82
2024/04/13 06:38:39;;;;;;;7.22;3.30;;;13.50;99.90;;;;;;5492864;26;20073;-83
2024/04/13 06:41:29;;;;;;;12.90;3.33;;;13.80;99.90;;;;;;5528810;26;20053;-81
2024/04/13 06:44:17;;;;;;;10.75;3.90;;;13.90;99.90;;;;;;5526639;26;20006;-84
2024/04/13 06:47:04;;;;;;;4.63;3.00;;;14.10;96.50;;;;;;5527189;26;20002;-85
2024/04/13 06:49:52;;;;;;;11.45;3.55;;;14.50;74.20;;;;;;5527120;26;20005;-82
2024/04/13 06:52:39;;;;;;;6.22;2.92;;;15.00;42.00;;;;;;5529719;26;20005;-83
2024/04/13 06:55:27;;;;;;;7.65;2.90;;;15.40;31.70;;;;;;5505788;26;20046;-83
2024/04/13 06:58:23;;;;;;;8.57;3.10;;;16.00;9.10;;;;;;5503187;26;20001;-85
2024/04/13 07:01:11;;;;;;;8.50;3.42;;;16.30;1.00;;;;;;5528720;26;20002;-80
2024/04/13 07:03:59;;;;;;;7.97;3.08;;;16.50;1.00;;;;;;5517618;26;20096;-85
2024/04/13 07:09:38;;;;;;;6.03;2.85;;;17.30;1.00;;;;;;5381381;26;20015;-84
2024/04/13 07:12:29;;;;;;;4.65;2.95;;;17.40;1.00;;;;;;5378616;26;20032;-84
2024/04/13 07:15:19;;;;;;;8.43;2.88;;;17.40;1.00;;;;;;5383032;26;20066;-84
2024/04/13 07:18:08;;;;;;;10.38;3.45;;;17.00;1.00;;;;;;5383440;26;20000;-84
2024/04/13 07:21:00;;;;;;;9.40;3.45;;;16.80;1.00;;;;;;5381380;26;20008;-85
2024/04/13 07:23:48;;;;;;;9.25;2.90;;;17.00;1.00;;;;;;5380731;26;20020;-86
2024/04/13 07:26:38;;;;;;;10.48;3.92;;;17.20;1.00;;;;;;5381044;26;20440;-83
2024/04/13 07:29:27;;;;;;;7.78;3.33;;;17.70;1.00;;;;;;5381258;26;20015;-85
2024/04/13 07:32:14;;;;;;;4.72;3.03;;;17.80;1.00;;;;;;5380742;26;20306;-82
2024/04/13 07:35:03;;;;;;;7.65;3.05;;;18.00;1.00;;;;;;5385102;26;20008;-83
2024/04/13 07:37:54;;;;;;;5.65;2.88;;;18.50;1.00;;;;;;5383434;26;20130;-84
2024/04/13 07:40:41;;;;;;;11.30;2.60;;;18.90;1.00;;;;;;5378244;26;20009;-82
2024/04/13 07:43:30;;;;;;;5.72;2.58;;;19.50;1.00;;;;;;5378462;26;20008;-83
2024/04/13 07:46:21;;;;;;;6.53;2.67;;;19.30;1.00;;;;;;5375673;26;20015;-82
2024/04/13 07:49:08;;;;;;;4.93;2.75;;;19.50;1.00;;;;;;5378223;26;20016;-82
2024/04/13 07:51:55;;;;;;;6.47;2.78;;;19.60;1.00;;;;;;5382328;26;20008;-84
2024/04/13 07:54:55;;;;;;;5.35;2.20;;;20.20;1.00;;;;;;5383610;26;20025;-84
2024/04/13 07:57:42;;;;;;;3.88;2.33;;;21.30;1.00;;;;;;5381936;26;20481;-85
2024/04/13 08:00:31;;;;;;;4.60;3.05;;;21.20;1.00;;;;;;5382559;26;20050;-81
2024/04/13 08:03:19;;;;;;;5.78;2.25;;;20.80;1.00;;;;;;5385538;26;20015;-83
2024/04/13 08:06:08;;;;;;;10.07;2.60;;;20.70;1.00;;;;;;5387155;26;20044;-81
2024/04/13 08:08:57;;;;;;;5.82;2.13;;;21.00;1.00;;;;;;5403762;26;20030;-78
2024/04/13 08:11:44;;;;;;;7.68;2.35;;;21.20;1.00;;;;;;5385595;26;20012;-83
2024/04/13 08:14:33;;;;;;;8.63;2.70;;;22.20;1.00;;;;;;5380730;26;20012;-81
2024/04/13 08:17:26;;;;;;;4.28;1.88;;;22.30;1.00;;;;;;5386395;26;20029;-82
2024/04/13 08:20:14;;;;;;;4.65;1.98;;;22.20;1.00;;;;;;5385971;26;20008;-83
2024/04/13 08:23:05;;;;;;;3.05;1.63;;;22.50;1.00;;;;;;5384626;26;20023;-85
2024/04/13 08:25:53;;;;;;;2.92;1.50;;;22.70;1.00;;;;;;5383889;26;20436;-84
2024/04/13 08:28:41;;;;;;;3.50;1.30;;;22.50;1.00;;;;;;5382130;26;20004;-85
2024/04/13 08:31:29;;;;;;;4.68;1.70;;;22.70;1.00;;;;;;5381369;26;20019;-85
2024/04/13 08:34:18;;;;;;;5.45;1.45;;;22.60;1.00;;;;;;5383067;26;20024;-85
2024/04/13 08:37:06;;;;;;;4.43;1.65;;;23.40;1.00;;;;;;5382523;26;20064;-84
2024/04/13 08:39:59;;;;;;;3.67;1.80;;;24.60;1.00;;;;;;5383446;26;20008;-81
2024/04/13 08:42:53;;;;;;;4.07;1.70;;;25.20;1.00;;;;;;5383603;26;20064;-85
2024/04/13 08:45:40;;;;;;;7.47;1.42;;;24.60;1.00;;;;;;5388666;26;20004;-85
2024/04/13 08:48:28;;;;;;;4.63;1.77;;;24.40;1.00;;;;;;5384042;26;20016;-84
2024/04/13 08:51:16;;;;;;;10.25;2.15;;;25.20;1.00;;;;;;5359286;26;20045;-84
2024/04/13 08:54:07;;;;;;;4.88;1.35;;;25.70;1.00;;;;;;5383337;26;20008;-79
2024/04/13 08:56:58;;;;;;;3.43;1.60;;;26.20;1.00;;;;;;5384556;26;20301;-85
2024/04/13 08:59:51;;;;;;;2.58;1.40;;;26.70;1.00;;;;;;5384581;26;20004;-85
2024/04/13 09:02:43;;;;;;;3.65;1.30;;;27.10;1.00;;;;;;5382115;26;20012;-85
2024/04/13 09:05:32;;;;;;;2.97;1.45;;;26.90;1.00;;;;;;5390615;26;20004;-85
2024/04/13 09:08:24;;;;;;;4.95;1.63;;;26.70;1.00;;;;;;5389618;26;20098;-85
2024/04/13 09:11:15;;;;;;;4.63;1.80;;;26.90;1.00;;;;;;5397542;26;20058;-83
2024/04/13 09:14:03;;;;;;;7.70;1.75;;;26.50;1.00;;;;;;5393821;26;20012;-84
2024/04/13 09:16:51;;;;;;;4.72;1.75;;;26.60;1.00;;;;;;5385417;26;20032;-84
2024/04/13 09:19:39;;;;;;;6.72;1.77;;;27.00;1.00;;;;;;5382358;26;20016;-83
2024/04/13 09:22:27;;;;;;;5.05;1.70;;;27.00;1.00;;;;;;5381091;26;20019;-83
2024/04/13 09:25:22;;;;;;;5.60;1.65;;;27.40;1.00;;;;;;5384174;26;20015;-85
2024/04/13 09:28:10;;;;;;;5.68;1.73;;;28.10;1.00;;;;;;5383706;26;20016;-83
2024/04/13 09:31:03;;;;;;;2.97;1.40;;;29.00;1.00;;;;;;5387228;26;20018;-84
2024/04/13 09:33:55;;;;;;;5.60;1.83;;;29.20;1.00;;;;;;5383602;26;20019;-83
2024/04/13 09:36:45;;;;;;;4.95;1.60;;;29.20;1.00;;;;;;5383737;26;20008;-81
2024/04/13 09:39:33;;;;;;;3.97;1.30;;;28.30;1.00;;;;;;5386166;26;20484;-83
2024/04/13 09:42:26;;;;;;;5.82;1.33;;;28.70;1.00;;;;;;5385370;26;20007;-84
2024/04/13 09:45:14;;;;;;;4.63;1.55;;;28.80;1.00;;;;;;5382373;26;20016;-86
2024/04/13 09:48:03;;;;;;;5.03;1.50;;;28.30;1.00;;;;;;5385613;26;20008;-85
2024/04/13 09:50:51;;;;;;;4.78;1.30;;;28.00;1.00;;;;;;5383565;26;20008;-82
2024/04/13 09:53:42;;;;;;;4.90;1.50;;;27.90;1.00;;;;;;5383251;26;20306;-85
2024/04/13 09:56:29;;;;;;;2.55;1.17;;;28.10;1.00;;;;;;5383824;26;20377;-84
2024/04/13 09:59:17;;;;;;;3.33;1.40;;;28.40;1.00;;;;;;5386537;26;20004;-83
2024/04/13 10:02:06;;;;;;;3.58;1.15;;;29.30;1.00;;;;;;5386907;26;20004;-85
2024/04/13 10:04:55;;;;;;;3.72;1.27;;;29.40;1.00;;;;;;5384882;26;20491;-83
2024/04/13 10:07:43;;;;;;;3.70;1.23;;;29.60;1.00;;;;;;5383578;26;20008;-82
2024/04/13 10:10:33;;;;;;;8.57;1.60;;;29.50;1.00;;;;;;5383560;26;20008;-85
2024/04/13 10:13:28;;;;;;;4.82;1.38;;;28.40;1.00;;;;;;5381850;26;20015;-83
2024/04/13 10:16:17;;;;;;;3.65;1.17;;;28.40;1.00;;;;;;5383280;26;20040;-85
2024/04/13 10:19:14;;;;;;;4.32;1.20;;;28.20;1.00;;;;;;5382393;26;20008;-80
2024/04/13 10:22:05;;;;;;;3.42;1.20;;;28.70;1.00;;;;;;5383908;26;20012;-83
2024/04/13 10:25:07;;;;;;;2.85;1.20;;;29.30;99.90;;;;;;5382329;26;20008;-84
2024/04/13 10:28:06;;;;;;;5.25;1.50;;;29.30;99.90;;;;;;5380613;26;20087;-84
2024/04/13 10:30:56;;;;;;;3.95;1.20;;;29.20;99.90;;;;;;5382816;26;20008;-84
2024/04/13 10:33:55;;;;;;;3.33;1.15;;;28.30;99.90;;;;;;5385552;26;20008;-82
2024/04/13 10:36:55;;;;;;;3.83;1.40;;;28.50;99.90;;;;;;5447574;21;20011;-84
2024/04/13 10:40:00;;;;;;;4.95;1.30;;;28.30;99.90;;;;;;5531096;25;20006;-82
2024/04/13 10:42:48;;;;;;;3.75;1.52;;;27.70;99.90;;;;;;5528456;26;20005;-82
2024/04/13 10:45:40;;;;;;;2.60;1.13;;;27.40;99.90;;;;;;5528539;26;20525;-84
2024/04/13 10:48:25;;;;;;;3.10;1.58;;;28.20;99.90;;;;;;5533086;21;20029;-83
2024/04/13 10:51:15;;;;;;;3.42;1.00;;;28.90;99.90;;;;;;5527374;26;20042;-81
2024/04/13 10:54:02;;;;;;;2.83;1.08;;;28.60;99.90;;;;;;5504608;26;20005;-84
2024/04/13 10:56:51;;;;;;;6.45;1.80;;;28.40;99.90;;;;;;5483583;26;20013;-85
2024/04/13 10:59:56;;;;;;;3.03;1.48;;;28.60;99.90;;;;;;5527435;26;20005;-84
2024/04/13 11:02:46;;;;;;;5.05;1.50;;;28.50;99.90;;;;;;5526616;26;20005;-85
2024/04/13 11:05:34;;;;;;;4.13;1.15;;;27.70;99.90;;;;;;5525498;26;20005;-87
2024/04/13 11:08:23;;;;;;;2.83;0.90;;;28.80;99.90;;;;;;5523869;26;20015;-87
2024/04/13 11:11:11;;;;;;;1.63;0.80;;;28.40;99.90;;;;;;5525390;26;20017;-83
2024/04/13 11:14:00;;;;;;;4.28;1.00;;;28.10;99.90;;;;;;5523798;26;20557;-84
2024/04/13 11:16:49;;;;;;;2.10;0.85;;;28.10;99.90;;;;;;5500255;26;20005;-85
2024/04/13 11:19:38;;;;;;;4.15;1.17;;;27.10;99.90;;;;;;5531529;26;20001;-79
2024/04/13 11:22:28;;;;;;;1.60;0.90;;;27.40;99.90;;;;;;5516907;26;20014;-84
2024/04/13 11:25:16;;;;;;;1.50;0.80;;;27.60;99.90;;;;;;5531043;26;20073;-87
2024/04/13 11:28:07;;;;;;;13.57;8.00;;;27.70;99.90;;;;;;5502290;26;20771;-86
2024/04/13 11:30:56;;;;;;;2.30;1.10;;;28.50;99.90;;;;;;5530258;26;20009;-86
2024/04/13 11:33:45;;;;;;;1.70;0.85;;;30.10;99.90;;;;;;5528231;26;20005;-83
2024/04/13 11:36:35;;;;;;;1.73;0.98;;;31.20;99.90;;;;;;5474843;21;20011;-81
2024/04/13 11:39:23;;;;;;;2.75;1.60;;;31.30;99.90;;;;;;5403280;26;20014;-84
2024/04/13 11:42:13;;;;;;;1.70;1.00;;;31.10;99.90;;;;;;5376803;26;20024;-84
2024/04/13 11:45:05;;;;;;;2.58;0.80;;;30.70;99.90;;;;;;5376601;26;20020;-85
2024/04/13 11:47:55;;;;;;;2.63;0.90;;;30.90;99.90;;;;;;5374988;26;20015;-85
2024/04/13 11:50:42;;;;;;;1.50;0.80;;;31.70;99.90;;;;;;5383871;26;20058;-83
2024/04/13 11:53:33;;;;;;;2.15;1.13;;;32.60;99.90;;;;;;5380228;26;20019;-83
2024/04/13 11:56:20;;;;;;;1.58;0.90;;;33.40;99.90;;;;;;5376330;26;20008;-85
2024/04/13 11:59:13;;;;;;;3.17;0.85;;;31.80;99.90;;;;;;5373238;26;20404;-87
2024/04/13 12:02:01;;;;;;;3.05;0.82;;;30.80;99.90;;;;;;5375360;26;20008;-85
2024/04/13 12:04:50;;;;;;;1.92;0.80;;;30.80;99.90;;;;;;5373046;26;20012;-86
2024/04/13 12:07:39;;;;;;;2.40;1.02;;;30.90;99.90;;;;;;5374819;26;20622;-85
2024/04/13 12:10:27;;;;;;;3.03;0.82;;;31.00;99.90;;;;;;5373736;26;20154;-86
2024/04/13 12:13:15;;;;;;;1.40;0.77;;;31.80;99.90;;;;;;5375149;26;20078;-83
2024/04/13 12:16:02;;;;;;;2.63;1.00;;;33.30;99.90;;;;;;5373227;26;20008;-84
2024/04/13 12:18:51;;;;;;;3.42;1.20;;;33.80;99.90;;;;;;5375994;26;20064;-80
2024/04/13 12:21:38;;;;;;;6.28;0.98;;;33.40;99.90;;;;;;5398957;26;20004;-86
2024/04/13 12:24:30;;;;;;;3.83;0.77;;;32.70;99.90;;;;;;5379129;26;20008;-86
2024/04/13 12:27:18;;;;;;;2.63;0.70;;;32.10;99.90;;;;;;5397302;26;20016;-82
2024/04/13 12:30:07;;;;;;;2.20;1.10;;;32.30;99.90;;;;;;5397448;26;20016;-86
2024/04/13 12:32:54;;;;;;;2.33;0.80;;;32.00;99.90;;;;;;5375234;26;20023;-82
2024/04/13 12:35:43;;;;;;;4.97;0.80;;;31.50;99.90;;;;;;5375967;26;20016;-86
2024/04/13 12:38:31;;;;;;;0.85;0.70;;;32.60;99.90;;;;;;5374131;26;20009;-83
2024/04/13 12:41:21;;;;;;;4.25;0.93;;;32.40;99.90;;;;;;5373653;26;20008;-83
2024/04/13 12:44:09;;;;;;;3.63;1.08;;;32.40;99.90;;;;;;5375631;26;20021;-82
2024/04/13 12:46:59;;;;;;;2.45;1.40;;;33.10;99.90;;;;;;5383373;26;20012;-85
2024/04/13 12:49:50;;;;;;;;;;;34.00;99.90;;;;;;5375876;26;20476;-84
2024/04/13 12:52:47;;;;;;;1.30;0.70;;;34.70;99.90;;;;;;5376161;26;19954;-86
2024/04/13 12:55:39;;;;;;;2.17;0.90;;;35.30;99.90;;;;;;5377717;26;20008;-82
2024/04/13 12:58:27;;;;;;;3.92;1.50;;;35.60;99.90;;;;;;5373776;26;20008;-85
2024/04/13 13:01:19;;;;;;;4.32;0.98;;;35.30;99.90;;;;;;5377332;26;20008;-86
2024/04/13 13:04:06;;;;;;;2.45;0.90;;;33.80;99.90;;;;;;5377579;26;20020;-85
2024/04/13 13:06:54;;;;;;;2.67;0.80;;;33.70;99.90;;;;;;5380838;21;20001;-85
2024/04/13 13:09:42;;;;;;;2.53;0.98;;;33.10;99.90;;;;;;5346916;26;20005;-86
2024/04/13 13:12:32;;;;;;;1.33;0.75;;;33.10;99.90;;;;;;5350884;26;20020;-83
2024/04/13 13:15:19;;;;;;;4.65;0.90;;;33.00;99.90;;;;;;5348539;26;20004;-87
2024/04/13 13:18:07;;;;;;;3.88;0.77;;;32.60;99.90;;;;;;5345272;26;20009;-85
2024/04/13 13:20:58;;;;;;;3.13;0.93;;;32.70;99.90;;;;;;5346786;26;20086;-82
2024/04/13 13:23:46;;;;;;;5.57;1.13;;;33.40;99.90;;;;;;5366769;26;20369;-85
2024/04/13 13:26:35;;;;;;;3.42;1.00;;;34.10;99.90;;;;;;5358405;21;20004;-84
2024/04/13 13:29:22;;;;;;;1.73;0.73;;;34.70;99.90;;;;;;5347356;26;20044;-83
2024/04/13 13:32:11;;;;;;;1.88;1.05;;;34.70;99.90;;;;;;5396726;26;20012;-86
2024/04/13 13:34:58;;;;;;;2.75;0.90;;;35.30;99.90;;;;;;5373526;26;20018;-83
2024/04/13 13:37:48;;;;;;;2.78;1.10;;;35.20;99.90;;;;;;5373338;26;20023;-85
2024/04/13 13:40:36;;;;;;;2.10;0.95;;;34.90;99.90;;;;;;5397139;26;20019;-85
2024/04/13 13:43:25;;;;;;;3.72;1.08;;;35.00;99.90;;;;;;5374423;26;20050;-85
2024/04/13 13:46:20;;;;;;;1.65;1.10;;;33.80;99.90;;;;;;5386028;21;20028;-83
2024/04/13 13:49:07;;;;;;;2.83;0.88;;;32.70;99.90;;;;;;5415955;26;20080;-84
2024/04/13 13:51:56;;;;;;;4.28;0.98;;;32.80;99.90;;;;;;5418107;26;20047;-80
2024/04/13 13:54:46;;;;;;;1.75;1.10;;;32.00;99.90;;;;;;5418696;26;20015;-84
2024/04/13 13:57:36;;;;;;;4.13;1.42;;;31.40;99.90;;;;;;5421667;26;20018;-85
2024/04/13 14:00:25;;;;;;;2.38;1.13;;;32.00;99.90;;;;;;5426654;26;20037;-81
2024/04/13 14:03:33;;;;;;;5.95;1.20;;;32.50;99.90;;;;;;5445264;26;20012;-87
2024/04/13 14:06:21;;;;;;;1.75;0.98;;;32.90;99.90;;;;;;5438062;20;20386;-86
2024/04/13 14:09:09;;;;;;;4.57;1.02;;;32.90;99.90;;;;;;5457669;26;20018;-83
2024/04/13 14:12:14;;;;;;;3.75;1.02;;;33.20;99.90;;;;;;5445149;26;20015;-84
2024/04/13 14:15:13;;;;;;;2.00;1.00;;;33.90;99.90;;;;;;5444648;26;20007;-83
2024/04/13 14:18:04;;;;;;;3.20;0.93;;;33.10;99.90;;;;;;5442693;26;20007;-83
2024/04/13 14:20:56;;;;;;;1.95;1.08;;;32.20;99.90;;;;;;5443950;26;20018;-82
2024/04/13 14:23:48;;;;;;;3.17;0.88;;;31.50;99.90;;;;;;5446755;26;20019;-83
2024/04/13 14:26:37;;;;;;;2.53;1.05;;;32.70;99.90;;;;;;5455146;21;20006;-82
2024/04/13 14:29:24;;;;;;;1.75;1.20;;;33.20;99.90;;;;;;5430290;26;20463;-85
2024/04/13 14:32:15;;;;;;;2.05;1.00;;;32.20;99.90;;;;;;5457965;26;20017;-84
2024/04/13 14:35:04;;;;;;;6.07;1.45;;;32.30;99.90;;;;;;5470109;26;19991;-82
2024/04/13 14:37:53;;;;;;;3.13;0.90;;;33.20;99.90;;;;;;5454600;26;20007;-83
2024/04/13 14:40:41;;;;;;;5.85;0.90;;;33.70;99.90;;;;;;5452059;26;20017;-83
2024/04/13 14:43:29;;;;;;;2.08;1.10;;;34.10;99.90;;;;;;5454202;26;20007;-85
2024/04/13 14:46:17;;;;;;;3.30;0.75;;;32.10;99.90;;;;;;5461172;20;20019;-80
2024/04/13 14:49:06;;;;;;;4.97;1.13;;;31.30;99.90;;;;;;5419286;26;20017;-79
2024/04/13 14:51:54;;;;;;;2.13;0.95;;;31.30;99.90;;;;;;5445395;26;20144;-82